22:09
Airports
Links
Donate
Help keep this website running!
PayPal
Bitcoin
METAR
LEBL 182200Z 05004KT 010V160 7000 TS RA FEW015 BKN025 FEW030CB 17/16 Q1012 NOSIG
Current Weather Conditions at LEBL
MVFR 22:00:00 18-10-17
Altimeter:29.88 hg
Temp:17.0°c 63°f
Dew point:16.0°c 61°f
Wind:4 knots, 4.6 mph, 2 m/s, from 50°
Visibility:4.35 statute miles
3000(FEW) A few
2500(BKN) Broken
1500(FEW) A few
No significant weather changes expected within 2 hours.
Past METAR reports
IFR 21:40:00 18-10-17
Altimeter:29.88 hg
Temp:16.0°c 61°f
Dew point:16.0°c 61°f
Wind:6 knots, 6.9 mph, 3 m/s, from 250°
Visibility:1.99 statute miles
3000(FEW) A few
2500(BKN) Broken
1500(FEW) A few
No significant weather changes expected within 2 hours.
LEBL 182140Z 25006KT 210V310 3200 TS +RA FEW015 BKN025 FEW030CB 16/16 Q1012 NOSIG
IFR 21:33:00 18-10-17
Altimeter:29.88 hg
Temp:16.0°c 61°f
Dew point:15.0°c 59°f
Wind:9 knots, 10.4 mph, 5 m/s, from 260°
Visibility:1.12 statute miles
5000(BKN) Broken
3000(FEW) A few
1500(BKN) Broken
No significant weather changes expected within 2 hours.
LEBL 182133Z 26009KT 210V290 1800 TS +RA BKN015 FEW030CB BKN050 16/15 Q1012 NOSIG
IFR 21:31:00 18-10-17
Altimeter:29.85 hg
Temp:16.0°c 61°f
Dew point:15.0°c 59°f
Wind:10 knots, 11.5 mph, 5 m/s, from 270°
Visibility:1.12 statute miles
5000(BKN) Broken
3000(FEW) A few
1500(FEW) A few
No significant weather changes expected within 2 hours.
LEBL 182131Z 27010KT 1800 TS +RA FEW015 FEW030CB BKN050 16/15 Q1011 NOSIG
IFR 21:30:00 18-10-17
Altimeter:29.85 hg
Temp:17.0°c 63°f
Dew point:15.0°c 59°f
Wind:6 knots, 6.9 mph, 3 m/s, from 290°
Visibility:1.86 statute miles
5000(BKN) Broken
3000(FEW) A few
1500(FEW) A few
No significant weather changes expected within 2 hours.
LEBL 182130Z 29006KT 230V330 3000 TS +RA FEW015 FEW030CB BKN050 17/15 Q1011 NOSIG
VFR 21:20:00 18-10-17
Altimeter:29.85 hg
Temp:17.0°c 63°f
Dew point:15.0°c 59°f
Wind:4 knots, 4.6 mph, 2 m/s, from 320°
Visibility:6.21 statute miles
3000(FEW) A few
1500(FEW) A few
LEBL 182120Z 32004KT 230V020 9999 TS -DZ FEW015 FEW030CB 17/15 Q1011 TEMPO 4000 TSRA
VFR 21:00:00 18-10-17
Altimeter:29.85 hg
Temp:16.0°c 61°f
Dew point:15.0°c 59°f
Wind:7 knots, 8.1 mph, 4 m/s, from 360°
Visibility:6.21 statute miles
3000(FEW) A few
1500(FEW) A few
LEBL 182100Z 36007KT 330V050 9999 VCTS FEW015 FEW030CB 16/15 Q1011 TEMPO 4000 TSRA
TAF
TAF LEBL 181700Z 1818/1918 15008KT 9999 SCT018 TX22/1912Z TN17/1906Z TEMPO 1818/1912 4000 TSRA BKN018 SCT020CB
Forecast at LEBL
18:00 18-10-17 to 18:00 19-10-17
Wind:8 Knots from 150°
Visibility:6.21 statute miles
1800SCT Scattered
TEMPO 18:00 18-10-17 to 12:00 19-10-17
TSRA
Visibility:2.49 statute miles
1800BKN Broken
2000SCT Scattered